Aeroporto :
LOGIN :

Iscrizione | Disclaimer

   EN    FR    IT 

 










Sommario :    VFR   VFR Marginale   IFR   IFR Intensivo   IFR Molto Intensivo
Visibilità : 
Base nubi : 
>= 8 km
>= 3000ft
5 / 8 km
1000 / 3000 ft
1500m / 5 km
500 / 1000 ft
800 / 1500m
200 / 500 ft
< 800m
< 200 ft
Simboli :   Temporali  Nebbia  Neve Forte  Precipitazioni Forti  Vento > 20 kt
SIGMETs :   Varie  Temporali  Ghiacco  Turbolenza  Onda orograficha  Ceneri Vulcaniche







- Altitudine del aeroporto : 1521 ft
- Codice IATA : NCY
- Carte del aeroporto


LFLP - Annecy

ULTIMO METAR :
  • 162330Z AUTO 06007KT CAVOK 01/M02 Q1028

METARs OBSOLETI :
  • 162300Z AUTO 05005KT CAVOK 01/M02 Q1028
  • 162230Z AUTO 06006KT CAVOK 02/M01 Q1028
  • 162200Z AUTO 05006KT CAVOK 02/M01 Q1028
  • 162130Z AUTO 05007KT CAVOK 02/M01 Q1028
  • 162100Z AUTO 05006KT CAVOK 03/M01 Q1028

TAF TAF LFLP
Valido dal 16 a 15 ore il 17 a 15 ore UTC


161400Z 1615/1715 VRB02KT CAVOK
Nessun NOTAM noto per questo aeroporto.



MetMap, La meteo Aeronautica in un colpo d'occhio ! - Copyright ORBIFLY Dicembre 2007 - Disclaimer

ORBIFLY MET'MAP TEAM :

Programmazione e sviluppo : Alexandra Zaïnal
Concezione e sviluppo : Baudouin d'Aumeries
Co-Programmazione e sviluppo : Marc-Olivier Méhu
Supporto tecnico e logistico : Manuel Goepfert
Aiuto per la traduzione : Arnaldo La Scala

Contatto : metmap@orbifly.com




FONTI E CREDITI :

   NOAA